createdAt,value
2022-10-04T00:01:40.884Z,100443.25
2022-10-04T00:06:53.950Z,100448.81
2022-10-04T00:11:57.294Z,100445.25
2022-10-04T00:17:00.129Z,100438.59
2022-10-04T00:22:07.495Z,100441.69
2022-10-04T00:27:27.039Z,100438.38
2022-10-04T00:32:40.548Z,100439.00
2022-10-04T00:38:14.993Z,100427.59
2022-10-04T00:43:31.206Z,100417.03
2022-10-04T00:48:41.669Z,100437.47
2022-10-04T00:54:05.966Z,100424.97
2022-10-04T00:59:22.647Z,100425.56
2022-10-04T01:04:39.926Z,100415.25
2022-10-04T01:09:53.458Z,100422.66
2022-10-04T01:15:30.008Z,100424.50
2022-10-04T01:20:48.789Z,100415.88
2022-10-04T01:25:51.160Z,100419.56
2022-10-04T01:30:53.513Z,100418.13
2022-10-04T01:35:55.219Z,100415.38
2022-10-04T01:41:03.103Z,100421.31
2022-10-04T01:46:11.297Z,100425.72
2022-10-04T01:51:30.291Z,100414.66
2022-10-04T01:56:43.911Z,100425.00
2022-10-04T02:01:52.650Z,100428.66
2022-10-04T02:06:57.061Z,100430.88
2022-10-04T02:11:59.704Z,100426.22
2022-10-04T02:17:05.585Z,100418.22
2022-10-04T02:22:10.827Z,100418.09
2022-10-04T02:27:13.226Z,100414.91
2022-10-04T02:32:33.553Z,100422.78
2022-10-04T02:37:38.209Z,100413.44
2022-10-04T02:43:03.782Z,100416.50
2022-10-04T02:48:31.804Z,100414.28
2022-10-04T02:53:52.190Z,100409.25
2022-10-04T02:58:54.699Z,100423.28
2022-10-04T03:03:58.299Z,100422.28
2022-10-04T03:09:03.678Z,100425.47
2022-10-04T03:14:10.400Z,100416.34
2022-10-04T03:19:15.737Z,100417.84
2022-10-04T03:24:25.153Z,100419.56
2022-10-04T03:29:32.004Z,100419.91
2022-10-04T03:34:37.103Z,100414.91
2022-10-04T03:39:43.300Z,100419.53
2022-10-04T03:44:46.838Z,100415.72
2022-10-04T03:49:51.008Z,100418.03
2022-10-04T03:54:55.832Z,100423.47
2022-10-04T03:59:59.291Z,100431.94
2022-10-04T04:05:11.267Z,100444.75
2022-10-04T04:10:27.576Z,100436.38
2022-10-04T04:15:32.759Z,100439.69
2022-10-04T04:20:36.841Z,100434.28
2022-10-04T04:25:42.076Z,100442.69
2022-10-04T04:30:51.567Z,100435.00
2022-10-04T04:35:56.308Z,100449.88
2022-10-04T04:41:08.540Z,100443.34
2022-10-04T04:46:26.536Z,100446.50
2022-10-04T04:51:31.660Z,100454.75
2022-10-04T04:56:34.924Z,100464.69
2022-10-04T05:01:48.038Z,100457.81
2022-10-04T05:07:17.151Z,100475.72
2022-10-04T05:12:23.660Z,100473.53
2022-10-04T05:17:29.849Z,100472.69
2022-10-04T05:22:32.890Z,100482.84
2022-10-04T05:27:40.777Z,100466.19
2022-10-04T05:33:04.925Z,100492.38
2022-10-04T05:38:10.696Z,100508.97
2022-10-04T05:43:26.833Z,100509.22
2022-10-04T05:48:28.626Z,100515.84
2022-10-04T05:53:31.319Z,100513.84
2022-10-04T05:58:48.267Z,100510.59
2022-10-04T06:04:16.537Z,100528.25
2022-10-04T06:09:18.018Z,100529.22
2022-10-04T06:14:44.450Z,100531.69
2022-10-04T06:20:20.710Z,100543.38
2022-10-04T06:25:38.317Z,100544.25
2022-10-04T06:31:07.914Z,100546.88
2022-10-04T06:36:34.286Z,100546.28
2022-10-04T06:41:49.056Z,100544.56
2022-10-04T06:46:58.543Z,100561.88
2022-10-04T06:52:23.448Z,100570.44
2022-10-04T06:57:37.103Z,100582.47
2022-10-04T07:03:03.018Z,100584.16
2022-10-04T07:08:34.061Z,100589.81
2022-10-04T07:13:56.565Z,100593.78
2022-10-04T07:19:19.316Z,100603.25
2022-10-04T07:24:27.741Z,100610.03
2022-10-04T07:29:39.923Z,100597.66
2022-10-04T07:34:46.038Z,100610.44
2022-10-04T07:39:52.812Z,100613.69
2022-10-04T07:45:21.452Z,100602.78
2022-10-04T07:50:30.353Z,100611.75
2022-10-04T07:55:55.373Z,100627.78
2022-10-04T08:01:15.271Z,100628.00
2022-10-04T08:06:26.203Z,100620.47
2022-10-04T08:11:41.425Z,100629.88
2022-10-04T08:17:17.788Z,100623.53
2022-10-04T08:22:26.863Z,100627.44
2022-10-04T08:28:03.138Z,100633.84
2022-10-04T08:33:26.318Z,100638.72
2022-10-04T08:38:48.010Z,100651.00
2022-10-04T08:44:05.723Z,100646.38
2022-10-04T08:49:39.798Z,100646.69
2022-10-04T08:55:11.866Z,100655.97
2022-10-04T09:00:32.060Z,100645.78
2022-10-04T09:05:45.557Z,100643.28
2022-10-04T09:11:31.831Z,100654.63
2022-10-04T09:17:01.732Z,100660.31
2022-10-04T09:22:17.377Z,100658.22
2022-10-04T09:27:55.412Z,100675.47
2022-10-04T09:33:00.266Z,100675.25
2022-10-04T09:38:29.168Z,100667.47
2022-10-04T09:44:00.413Z,100673.53
2022-10-04T09:49:13.629Z,100676.06
2022-10-04T09:54:33.588Z,100678.09
2022-10-04T09:59:43.836Z,100678.59
2022-10-04T10:05:11.284Z,100679.25
2022-10-04T10:11:04.183Z,100678.41
2022-10-04T10:16:29.839Z,100701.59
2022-10-04T10:22:02.269Z,100699.28
2022-10-04T10:27:31.586Z,100702.91
2022-10-04T10:32:39.331Z,100688.94
2022-10-04T10:37:49.629Z,100693.31
2022-10-04T10:42:59.890Z,100697.63
2022-10-04T10:48:29.787Z,100706.75
2022-10-04T10:53:59.040Z,100714.06
2022-10-04T10:59:33.258Z,100716.47
2022-10-04T11:04:56.390Z,100712.53
2022-10-04T11:10:32.362Z,100709.44
2022-10-04T11:16:11.495Z,100720.09
2022-10-04T11:22:07.383Z,100706.78
2022-10-04T11:27:28.789Z,100706.78
2022-10-04T11:32:45.653Z,100703.34
2022-10-04T11:38:04.921Z,100721.97
2022-10-04T11:43:17.567Z,100723.56
2022-10-04T11:48:22.042Z,100723.44
2022-10-04T11:53:55.586Z,100719.22
2022-10-04T11:59:17.751Z,100719.84
2022-10-04T12:04:41.342Z,100729.91
2022-10-04T12:10:03.408Z,100723.47
2022-10-04T12:15:32.881Z,100723.66
2022-10-04T12:21:12.613Z,100724.38
2022-10-04T12:26:32.992Z,100730.38
2022-10-04T12:31:36.276Z,100720.25
2022-10-04T12:36:53.040Z,100722.56
2022-10-04T12:42:09.497Z,100727.44
2022-10-04T12:47:29.077Z,100716.22
2022-10-04T12:52:43.960Z,100710.06
2022-10-04T12:57:58.249Z,100700.44
2022-10-04T13:03:22.727Z,100711.00
2022-10-04T13:08:37.908Z,100711.28
2022-10-04T13:13:42.130Z,100718.94
2022-10-04T13:19:10.636Z,100726.25
2022-10-04T13:24:55.646Z,100733.16
2022-10-04T13:30:13.376Z,100730.56
2022-10-04T13:35:23.858Z,100726.00
2022-10-04T13:40:54.903Z,100734.59
2022-10-04T13:46:20.066Z,100738.06
2022-10-04T13:51:28.685Z,100743.22
2022-10-04T13:56:57.699Z,100744.06
2022-10-04T14:02:41.044Z,100733.72
2022-10-04T14:07:57.785Z,100745.78
2022-10-04T14:13:27.070Z,100740.47
2022-10-04T14:18:40.508Z,100749.06
2022-10-04T14:23:44.553Z,100743.19
2022-10-04T14:28:59.068Z,100753.25
2022-10-04T14:34:37.571Z,100753.53
2022-10-04T14:40:08.687Z,100751.78
2022-10-04T14:45:35.286Z,100753.53
2022-10-04T14:51:16.428Z,100752.25
2022-10-04T14:56:43.886Z,100755.91
2022-10-04T15:02:00.599Z,100753.59
2022-10-04T15:07:16.785Z,100770.47
2022-10-04T15:18:46.133Z,100774.31
2022-10-04T15:23:54.976Z,100767.84
2022-10-04T15:29:25.660Z,100772.72
2022-10-04T15:34:35.468Z,100777.47
2022-10-04T15:39:47.385Z,100778.38
2022-10-04T15:45:15.988Z,100780.06
2022-10-04T15:50:32.583Z,100785.59
2022-10-04T15:55:38.050Z,100790.16
2022-10-04T16:01:05.258Z,100792.09
2022-10-04T16:06:21.692Z,100794.34
2022-10-04T16:11:32.297Z,100786.03
2022-10-04T16:17:09.809Z,100791.25
2022-10-04T16:22:19.013Z,100792.88
2022-10-04T16:27:46.219Z,100791.56
2022-10-04T16:32:56.607Z,100793.75
2022-10-04T16:38:14.417Z,100795.22
2022-10-04T16:43:15.936Z,100791.41
2022-10-04T16:48:23.634Z,100794.75
2022-10-04T16:53:59.581Z,100802.06
2022-10-04T16:59:10.922Z,100800.00
2022-10-04T17:04:38.776Z,100792.13
2022-10-04T17:09:48.971Z,100805.19
2022-10-04T17:15:21.073Z,100799.06
2022-10-04T17:20:25.800Z,100798.06
2022-10-04T17:25:53.048Z,100799.31
2022-10-04T17:31:08.658Z,100794.47
2022-10-04T17:36:33.190Z,100800.47
2022-10-04T17:41:43.506Z,100806.00
2022-10-04T17:47:23.847Z,100809.44
2022-10-04T17:52:52.775Z,100805.59
2022-10-04T17:58:02.804Z,100810.00
2022-10-04T18:03:12.344Z,100819.59
2022-10-04T18:08:33.781Z,100820.06
2022-10-04T18:13:49.438Z,100829.63
2022-10-04T18:18:51.144Z,100839.44
2022-10-04T18:24:16.998Z,100838.16
2022-10-04T18:29:37.133Z,100847.06
2022-10-04T18:34:38.817Z,100835.84
2022-10-04T18:39:55.403Z,100857.72
2022-10-04T18:45:05.430Z,100856.25
2022-10-04T18:50:20.882Z,100858.41
2022-10-04T18:56:13.172Z,100858.63
2022-10-04T19:01:57.646Z,100856.91
2022-10-04T19:07:30.343Z,100858.84
2022-10-04T19:12:41.133Z,100860.56
2022-10-04T19:18:00.839Z,100875.09
2022-10-04T19:23:33.301Z,100873.59
2022-10-04T19:28:37.679Z,100867.41
2022-10-04T19:33:53.668Z,100870.34
2022-10-04T19:39:22.927Z,100867.09
2022-10-04T19:45:01.884Z,100871.56
2022-10-04T19:50:10.421Z,100868.84
2022-10-04T19:55:42.820Z,100873.50
2022-10-04T20:00:44.642Z,100875.44
2022-10-04T20:05:48.711Z,100887.78
2022-10-04T20:10:50.297Z,100889.84
2022-10-04T20:16:00.597Z,100883.34
2022-10-04T20:21:09.708Z,100879.44
2022-10-04T20:26:53.767Z,100900.22
2022-10-04T20:31:56.308Z,100897.19
2022-10-04T20:36:57.899Z,100885.06
2022-10-04T20:42:29.896Z,100886.56
2022-10-04T20:47:43.961Z,100875.97
2022-10-04T20:52:48.498Z,100875.19
2022-10-04T20:57:50.072Z,100882.88
2022-10-04T21:03:08.314Z,100890.66
2022-10-04T21:08:14.845Z,100890.88
2022-10-04T21:13:42.286Z,100896.91
2022-10-04T21:18:43.828Z,100903.16
2022-10-04T21:23:45.357Z,100902.63
2022-10-04T21:28:48.308Z,100889.22
2022-10-04T21:33:49.980Z,100904.94
2022-10-04T21:38:54.242Z,100919.31
2022-10-04T21:43:55.832Z,100930.13
2022-10-04T21:48:57.376Z,100928.19
2022-10-04T21:53:59.462Z,100927.88
2022-10-04T21:59:01.126Z,100930.84
2022-10-04T22:04:02.901Z,100936.03
2022-10-04T22:09:05.257Z,100941.28
2022-10-04T22:14:06.788Z,100948.47
2022-10-04T22:19:08.348Z,100946.34
2022-10-04T22:24:17.507Z,100935.75
2022-10-04T22:29:19.074Z,100936.69
2022-10-04T22:34:22.887Z,100948.34
2022-10-04T22:39:25.078Z,100942.84
2022-10-04T22:44:34.535Z,100936.31
2022-10-04T22:49:38.804Z,100923.81
2022-10-04T22:54:44.597Z,100925.13
2022-10-04T22:59:51.469Z,100909.81
2022-10-04T23:05:09.849Z,100902.59
2022-10-04T23:10:13.993Z,100892.00
2022-10-04T23:15:17.918Z,100882.38
2022-10-04T23:20:20.584Z,100883.34
2022-10-04T23:25:29.154Z,100881.22
2022-10-04T23:30:30.981Z,100867.28
2022-10-04T23:35:34.105Z,100871.41
2022-10-04T23:40:35.699Z,100850.81
2022-10-04T23:45:42.051Z,100850.25
2022-10-04T23:50:43.877Z,100836.56
2022-10-04T23:55:46.151Z,100832.72
